Time;durP1;ratioP1;P1;durP2;ratioP2;P2;SDS_P1;SDS_P2;PMS_P1;PMS_P2;Temp;Humidity;BMP_temperature;BMP_pressure;BME280_temperature;BME280_humidity;BME280_pressure;Samples;Min_cycle;Max_cycle;Signal;HPM_P1;HPM_P2
2022/11/08 00:01:59;;;;;;;2.73;2.10;;;6.10;99.90;;;;;;5081894;28;20282;-92
2022/11/08 00:04:27;;;;;;;5.57;4.47;;;6.10;99.90;;;;;;5079395;28;20235;-92
2022/11/08 00:15:09;;;;;;;3.67;2.30;;;5.90;99.90;;;;;;5083775;28;20572;-90
2022/11/08 00:17:36;;;;;;;2.33;2.00;;;5.80;99.90;;;;;;5080046;28;20550;-92
2022/11/08 00:20:04;;;;;;;6.97;2.50;;;5.80;99.90;;;;;;5090888;28;20291;-92
2022/11/08 00:22:32;;;;;;;4.13;3.33;;;5.80;99.90;;;;;;5077507;28;20208;-92
2022/11/08 00:25:00;;;;;;;4.47;2.93;;;5.80;99.90;;;;;;5085885;28;20633;-92
2022/11/08 00:27:27;;;;;;;4.27;3.47;;;5.90;99.90;;;;;;5089343;28;20228;-92
2022/11/08 00:29:54;;;;;;;3.60;2.50;;;6.00;99.90;;;;;;5090071;28;20246;-92
2022/11/08 00:32:23;;;;;;;4.33;2.20;;;6.00;99.90;;;;;;5088911;28;20196;-91
2022/11/08 00:34:51;;;;;;;5.13;2.40;;;6.00;99.90;;;;;;5090587;28;20291;-93
2022/11/08 00:37:20;;;;;;;2.87;2.57;;;6.00;99.90;;;;;;5079930;28;20447;-92
2022/11/08 00:39:47;;;;;;;3.90;1.90;;;5.90;99.90;;;;;;5088196;28;20256;-90
2022/11/08 00:42:16;;;;;;;2.40;2.20;;;5.80;99.90;;;;;;5098813;28;20223;-91
2022/11/08 00:44:42;;;;;;;3.10;2.80;;;5.70;99.90;;;;;;5081826;28;20283;-91
2022/11/08 00:47:09;;;;;;;2.43;2.23;;;5.80;99.90;;;;;;5082288;28;20200;-92
2022/11/08 00:49:36;;;;;;;3.70;2.30;;;5.80;99.90;;;;;;5088388;28;20278;-91
2022/11/08 00:52:06;;;;;;;3.43;2.20;;;5.90;99.90;;;;;;5086803;28;20232;-92
2022/11/08 00:54:33;;;;;;;2.90;2.43;;;5.90;99.90;;;;;;5077451;28;20312;-92
2022/11/08 00:56:59;;;;;;;2.60;2.17;;;5.80;99.90;;;;;;5087744;28;20287;-92
2022/11/08 00:59:28;;;;;;;3.43;2.20;;;6.00;99.90;;;;;;5088229;28;20296;-91
2022/11/08 01:01:55;;;;;;;6.07;3.53;;;6.00;99.90;;;;;;5088669;28;20739;-93
2022/11/08 01:04:22;;;;;;;3.33;3.03;;;6.10;99.90;;;;;;5085613;28;20323;-92
2022/11/08 01:06:48;;;;;;;3.63;2.30;;;6.20;99.90;;;;;;5088578;28;20731;-92
2022/11/08 01:09:15;;;;;;;3.57;2.40;;;6.20;99.90;;;;;;5080251;28;20287;-92
2022/11/08 01:11:45;;;;;;;2.47;2.20;;;6.10;99.80;;;;;;5084911;28;20303;-92
2022/11/08 01:14:17;;;;;;;2.77;2.00;;;6.00;99.90;;;;;;5087574;28;20197;-91
2022/11/08 01:16:46;;;;;;;3.40;2.50;;;5.80;99.90;;;;;;5079832;28;20288;-92
2022/11/08 01:19:23;;;;;;;3.67;1.80;;;5.80;99.90;;;;;;5085763;28;20231;-91
2022/11/08 01:21:50;;;;;;;2.67;2.20;;;5.70;99.90;;;;;;5079981;28;20243;-91
2022/11/08 01:24:20;;;;;;;4.30;2.50;;;5.70;99.90;;;;;;5110455;28;20212;-91
2022/11/08 01:26:50;;;;;;;3.63;2.40;;;5.80;99.90;;;;;;5095460;28;20211;-92
2022/11/08 01:29:17;;;;;;;2.23;1.87;;;5.80;99.90;;;;;;5085994;28;20208;-92
2022/11/08 01:31:43;;;;;;;3.93;2.70;;;5.80;99.90;;;;;;5088204;28;20641;-91
2022/11/08 01:34:12;;;;;;;3.27;2.13;;;5.70;99.90;;;;;;5081722;28;20205;-93
2022/11/08 01:36:39;;;;;;;2.77;2.00;;;5.60;99.90;;;;;;5083857;28;20212;-92
2022/11/08 01:39:05;;;;;;;2.17;1.83;;;5.60;99.90;;;;;;5083173;28;20282;-92
2022/11/08 01:41:32;;;;;;;2.53;1.93;;;5.60;99.90;;;;;;5077768;28;20297;-92
2022/11/08 01:44:00;;;;;;;2.87;1.93;;;5.50;99.90;;;;;;5077798;28;20646;-92
2022/11/08 01:46:41;;;;;;;3.17;2.13;;;5.50;99.90;;;;;;5086931;28;20229;-92
2022/11/08 01:49:35;;;;;;;2.90;2.00;;;5.40;99.90;;;;;;5075298;28;20300;-92
2022/11/08 01:52:25;;;;;;;2.00;1.80;;;5.40;99.90;;;;;;5081559;28;20209;-92
2022/11/08 01:55:00;;;;;;;3.27;2.30;;;5.50;99.90;;;;;;5085923;28;20683;-92
2022/11/08 01:57:32;;;;;;;2.90;1.60;;;5.50;99.90;;;;;;5087622;28;20230;-91
2022/11/08 02:00:04;;;;;;;2.50;1.90;;;5.50;99.90;;;;;;5089674;28;20287;-91
2022/11/08 02:02:33;;;;;;;2.40;1.90;;;5.50;99.90;;;;;;5088392;28;20204;-91
2022/11/08 02:05:04;;;;;;;4.20;1.90;;;5.40;99.90;;;;;;5087688;28;20220;-92
2022/11/08 02:07:32;;;;;;;3.20;1.93;;;5.40;99.90;;;;;;5087422;28;20197;-92
2022/11/08 02:10:00;;;;;;;3.17;2.00;;;5.30;99.90;;;;;;5080519;28;20265;-90
2022/11/08 02:12:28;;;;;;;3.67;2.10;;;5.40;99.90;;;;;;5080179;28;20295;-93
2022/11/08 02:14:54;;;;;;;2.00;1.80;;;5.40;99.90;;;;;;5076421;28;20223;-92
2022/11/08 02:17:21;;;;;;;2.97;1.70;;;5.50;99.90;;;;;;5084955;28;20606;-92
2022/11/08 02:19:50;;;;;;;2.67;1.80;;;5.50;99.90;;;;;;5086821;28;20303;-92
2022/11/08 02:22:29;;;;;;;3.10;1.80;;;5.50;99.90;;;;;;5075465;28;20201;-92
2022/11/08 02:24:59;;;;;;;3.30;1.83;;;5.50;99.90;;;;;;5081911;28;20316;-92
2022/11/08 02:27:29;;;;;;;2.27;1.67;;;5.50;99.90;;;;;;5079083;28;20220;-92
2022/11/08 02:29:57;;;;;;;1.93;1.73;;;5.40;99.90;;;;;;5081399;28;20238;-92
2022/11/08 02:32:25;;;;;;;4.10;1.90;;;5.20;99.90;;;;;;5088251;28;20296;-92
2022/11/08 02:34:56;;;;;;;4.47;1.60;;;5.20;99.90;;;;;;5088362;28;20212;-92
2022/11/08 02:37:25;;;;;;;2.07;1.60;;;5.20;99.90;;;;;;5084849;28;20298;-92
2022/11/08 02:39:52;;;;;;;2.83;2.23;;;5.20;99.90;;;;;;5084986;28;20672;-92
2022/11/08 02:42:20;;;;;;;2.20;2.00;;;5.20;99.90;;;;;;5083392;28;20248;-92
2022/11/08 02:44:48;;;;;;;2.97;2.00;;;5.40;99.90;;;;;;5080090;28;20226;-91
2022/11/08 02:47:16;;;;;;;2.87;1.90;;;5.40;99.90;;;;;;5094193;28;20200;-92
2022/11/08 02:49:42;;;;;;;2.33;1.80;;;5.40;99.90;;;;;;5093312;28;20291;-92
2022/11/08 02:52:10;;;;;;;2.33;2.00;;;5.40;99.90;;;;;;5084292;28;20292;-92
2022/11/08 02:54:37;;;;;;;2.03;1.60;;;5.50;99.90;;;;;;5085066;28;20289;-93
2022/11/08 02:57:04;;;;;;;2.20;1.80;;;5.60;99.90;;;;;;5093342;28;20321;-92
2022/11/08 02:59:32;;;;;;;2.23;1.77;;;5.60;99.90;;;;;;5090210;28;20285;-92
2022/11/08 03:01:59;;;;;;;3.00;1.93;;;5.50;99.90;;;;;;5091329;28;20219;-92
2022/11/08 03:04:26;;;;;;;1.87;1.70;;;5.40;99.90;;;;;;5092973;28;20374;-92
2022/11/08 03:06:53;;;;;;;3.30;1.90;;;5.30;99.90;;;;;;5083849;28;20755;-90
2022/11/08 03:09:19;;;;;;;2.60;1.90;;;5.20;99.90;;;;;;5088355;28;20304;-91
2022/11/08 03:11:46;;;;;;;2.07;1.87;;;5.30;99.90;;;;;;5088294;28;20297;-91
2022/11/08 03:14:13;;;;;;;1.97;1.70;;;5.40;99.90;;;;;;5100883;28;20224;-91
2022/11/08 03:16:41;;;;;;;2.03;1.67;;;5.50;99.90;;;;;;5085549;28;20279;-92
2022/11/08 03:19:08;;;;;;;3.03;1.67;;;5.40;99.90;;;;;;5088711;28;20228;-92
2022/11/08 03:21:36;;;;;;;3.57;1.83;;;5.40;99.90;;;;;;5076130;28;20292;-91
2022/11/08 03:24:03;;;;;;;3.23;1.60;;;5.50;99.90;;;;;;5078698;28;20205;-92
2022/11/08 03:26:31;;;;;;;2.20;1.70;;;5.50;99.70;;;;;;5089545;28;20303;-92
2022/11/08 03:28:58;;;;;;;2.07;1.87;;;5.40;99.50;;;;;;5086890;28;20224;-92
2022/11/08 03:31:25;;;;;;;2.43;1.70;;;5.50;99.90;;;;;;5087937;28;20264;-92
2022/11/08 03:33:55;;;;;;;3.60;1.70;;;5.30;99.50;;;;;;5089173;28;20228;-92
2022/11/08 03:36:22;;;;;;;2.17;1.60;;;5.20;99.80;;;;;;5088006;28;20284;-93
2022/11/08 03:38:49;;;;;;;1.70;1.60;;;5.30;99.90;;;;;;5082035;28;20204;-92
2022/11/08 03:41:16;;;;;;;2.70;1.80;;;5.20;99.90;;;;;;5086873;28;20211;-92
2022/11/08 03:43:44;;;;;;;1.83;1.70;;;5.00;99.90;;;;;;5085022;28;20716;-92
2022/11/08 03:46:11;;;;;;;2.00;1.70;;;4.90;99.90;;;;;;5083797;28;20221;-92
2022/11/08 03:48:38;;;;;;;2.00;1.73;;;4.90;99.90;;;;;;5085579;28;20251;-92
2022/11/08 03:51:09;;;;;;;2.47;1.90;;;4.90;99.90;;;;;;5085881;28;20296;-92
2022/11/08 03:53:36;;;;;;;2.53;2.00;;;4.80;99.90;;;;;;5083183;28;20309;-92
2022/11/08 03:56:03;;;;;;;2.10;1.80;;;4.90;99.90;;;;;;5087695;28;20564;-92
2022/11/08 03:58:36;;;;;;;3.53;1.90;;;5.00;99.90;;;;;;5087628;28;20232;-92
2022/11/08 04:01:04;;;;;;;2.43;1.70;;;5.00;99.90;;;;;;5086003;28;20327;-92
2022/11/08 04:03:31;;;;;;;1.97;1.77;;;4.80;99.90;;;;;;5086619;28;20202;-92
2022/11/08 04:06:00;;;;;;;1.90;1.70;;;4.70;99.90;;;;;;5090918;28;20227;-92
2022/11/08 04:08:29;;;;;;;2.70;1.80;;;4.80;99.90;;;;;;5087570;28;20291;-92
2022/11/08 04:10:56;;;;;;;3.47;1.67;;;4.80;99.90;;;;;;5081577;28;20670;-92
2022/11/08 04:16:08;;;;;;;2.60;2.00;;;4.70;99.90;;;;;;5083901;28;20679;-92
2022/11/08 04:21:20;;;;;;;2.10;1.73;;;4.90;99.90;;;;;;5087095;28;20210;-92
2022/11/08 04:23:50;;;;;;;3.13;2.20;;;4.90;99.90;;;;;;5085431;28;20254;-92
2022/11/08 04:26:18;;;;;;;2.00;1.80;;;5.00;99.90;;;;;;5089527;28;20311;-92
2022/11/08 04:28:45;;;;;;;3.23;1.90;;;4.90;99.90;;;;;;5089070;28;20260;-92
2022/11/08 04:31:15;;;;;;;4.10;1.90;;;4.70;99.90;;;;;;5089993;28;20296;-91
2022/11/08 04:33:42;;;;;;;2.57;1.83;;;4.70;99.90;;;;;;5083120;28;20200;-91
2022/11/08 04:36:12;;;;;;;2.40;1.73;;;4.80;99.90;;;;;;5087820;28;20586;-92
2022/11/08 04:38:39;;;;;;;1.70;1.60;;;4.80;99.90;;;;;;5089427;28;20258;-92
2022/11/08 04:41:10;;;;;;;3.20;2.00;;;4.70;99.90;;;;;;5083723;28;20232;-92
2022/11/08 04:43:37;;;;;;;6.07;2.97;;;4.60;99.90;;;;;;5085165;28;20203;-91
2022/11/08 04:46:08;;;;;;;4.17;2.73;;;4.60;99.90;;;;;;5083079;28;20230;-92
2022/11/08 04:48:36;;;;;;;2.00;1.83;;;4.50;99.90;;;;;;5079159;28;20643;-91
2022/11/08 04:51:05;;;;;;;2.87;2.00;;;4.60;99.90;;;;;;5084227;28;20579;-92
2022/11/08 04:53:32;;;;;;;3.17;2.00;;;4.70;99.90;;;;;;5081520;28;20274;-92
2022/11/08 04:56:01;;;;;;;2.37;1.60;;;4.80;99.90;;;;;;5083159;28;20291;-92
2022/11/08 04:58:33;;;;;;;3.20;1.93;;;4.60;99.90;;;;;;5079902;28;20565;-91
2022/11/08 05:01:00;;;;;;;2.90;1.70;;;4.40;99.90;;;;;;5082184;28;20288;-92
2022/11/08 05:03:27;;;;;;;2.93;1.80;;;4.30;99.90;;;;;;5086304;28;20204;-92
2022/11/08 05:05:54;;;;;;;3.13;1.97;;;4.20;99.90;;;;;;5085956;28;20262;-92
2022/11/08 05:08:21;;;;;;;2.43;1.90;;;4.30;99.90;;;;;;5082346;28;20649;-92
2022/11/08 05:10:48;;;;;;;2.10;1.90;;;4.40;99.90;;;;;;5080670;28;20546;-92
2022/11/08 05:13:15;;;;;;;3.07;1.80;;;4.60;99.90;;;;;;5086453;28;20228;-92
2022/11/08 05:15:49;;;;;;;2.00;1.80;;;4.50;99.90;;;;;;5088086;28;20906;-91
2022/11/08 05:18:16;;;;;;;3.47;1.63;;;4.50;99.90;;;;;;5090286;28;20211;-92
2022/11/08 05:23:27;;;;;;;3.77;2.27;;;4.60;99.90;;;;;;5086151;28;20212;-91
2022/11/08 05:25:55;;;;;;;3.47;2.10;;;4.60;99.90;;;;;;5089818;28;20274;-91
2022/11/08 05:28:22;;;;;;;2.30;1.70;;;4.70;99.90;;;;;;5099367;28;20588;-92
2022/11/08 05:30:56;;;;;;;3.03;2.10;;;4.70;99.80;;;;;;5096980;28;20229;-94
2022/11/08 05:33:24;;;;;;;2.67;1.67;;;4.50;99.80;;;;;;5092806;28;20231;-95
2022/11/08 05:35:51;;;;;;;2.30;1.70;;;4.40;99.70;;;;;;5090427;28;20236;-94
2022/11/08 05:38:19;;;;;;;3.27;2.00;;;4.20;99.80;;;;;;5100548;28;20263;-93
2022/11/08 05:40:46;;;;;;;2.40;1.63;;;4.00;99.90;;;;;;5101399;28;20256;-94
2022/11/08 05:43:13;;;;;;;3.30;1.97;;;4.00;99.90;;;;;;5099907;28;20239;-93
2022/11/08 05:45:40;;;;;;;4.63;2.00;;;4.00;99.90;;;;;;5110832;28;20211;-91
2022/11/08 05:48:09;;;;;;;2.23;1.70;;;4.00;99.90;;;;;;5110192;28;20220;-92
2022/11/08 05:50:36;;;;;;;2.00;1.80;;;4.00;99.90;;;;;;5100982;28;20262;-94
2022/11/08 05:53:03;;;;;;;2.70;1.90;;;4.00;99.90;;;;;;5105359;28;20232;-93
2022/11/08 05:55:30;;;;;;;1.77;1.60;;;4.00;99.90;;;;;;5093219;28;20833;-94
2022/11/08 05:57:57;;;;;;;1.97;1.77;;;4.00;99.90;;;;;;5087631;28;20291;-93
2022/11/08 06:00:30;;;;;;;4.57;2.07;;;3.90;99.90;;;;;;5084565;28;20291;-92
2022/11/08 06:02:57;;;;;;;3.37;2.30;;;3.80;99.90;;;;;;5079243;28;20209;-92
2022/11/08 06:06:01;;;;;;;4.27;2.10;;;3.70;99.90;;;;;;5085138;28;20207;-92
2022/11/08 06:08:29;;;;;;;2.43;2.20;;;3.60;99.90;;;;;;5087928;28;20203;-93
2022/11/08 06:11:02;;;;;;;2.60;2.13;;;3.70;99.90;;;;;;5092867;28;20207;-94
2022/11/08 06:13:29;;;;;;;2.47;2.20;;;3.80;99.90;;;;;;5087913;28;20219;-92
2022/11/08 06:15:58;;;;;;;3.40;2.30;;;3.80;99.90;;;;;;5080376;28;20565;-92
2022/11/08 06:18:25;;;;;;;3.73;2.17;;;3.80;99.90;;;;;;5087031;28;20195;-91
2022/11/08 06:20:52;;;;;;;3.87;2.30;;;4.10;99.90;;;;;;5088353;28;20554;-90
2022/11/08 06:23:31;;;;;;;3.33;2.50;;;4.00;99.90;;;;;;5165481;22;20725;-92
2022/11/08 06:26:06;;;;;;;3.30;2.87;;;4.20;99.90;;;;;;5081067;28;20224;-92
2022/11/08 06:28:33;;;;;;;3.60;2.10;;;4.10;99.90;;;;;;5067462;28;20334;-92
2022/11/08 06:31:01;;;;;;;5.40;2.60;;;4.00;99.90;;;;;;5067954;28;20207;-92
2022/11/08 06:33:28;;;;;;;2.60;2.40;;;4.00;99.90;;;;;;5068021;28;20232;-90
2022/11/08 06:35:55;;;;;;;2.67;2.37;;;3.90;99.90;;;;;;5064375;28;20683;-90
2022/11/08 06:38:22;;;;;;;2.53;2.03;;;4.00;99.90;;;;;;5067479;28;20197;-90
2022/11/08 06:40:51;;;;;;;3.57;2.40;;;4.20;99.90;;;;;;5076328;28;20203;-90
2022/11/08 06:43:18;;;;;;;14.57;9.07;;;4.30;99.90;;;;;;5071945;28;20193;-90
2022/11/08 06:45:45;;;;;;;49.40;28.73;;;4.20;99.90;;;;;;5074372;28;20234;-89
2022/11/08 06:48:12;;;;;;;12.30;8.27;;;4.40;99.90;;;;;;5072619;28;20193;-89
2022/11/08 06:50:38;;;;;;;9.53;6.20;;;4.60;99.90;;;;;;5068086;28;20201;-90
2022/11/08 06:53:07;;;;;;;17.83;12.50;;;4.60;99.90;;;;;;5074727;28;20220;-90
2022/11/08 06:55:35;;;;;;;5.20;3.50;;;4.80;99.90;;;;;;5093134;28;20568;-90
2022/11/08 06:58:04;;;;;;;15.50;8.10;;;4.80;99.80;;;;;;5092617;28;20279;-90
2022/11/08 07:00:31;;;;;;;5.60;2.80;;;4.80;99.90;;;;;;5092504;28;20199;-90
2022/11/08 07:02:59;;;;;;;18.20;9.30;;;4.80;99.90;;;;;;5080874;28;20202;-90
2022/11/08 07:05:27;;;;;;;2.33;1.80;;;5.00;99.90;;;;;;5094527;28;20197;-90
2022/11/08 07:07:56;;;;;;;4.47;2.20;;;5.10;99.80;;;;;;5091540;28;20228;-90
2022/11/08 07:10:26;;;;;;;5.67;3.47;;;5.00;99.60;;;;;;5085591;28;20200;-91
2022/11/08 07:12:59;;;;;;;53.67;35.47;;;5.00;99.90;;;;;;5087860;28;20197;-90
2022/11/08 07:15:28;;;;;;;36.17;23.50;;;5.00;99.90;;;;;;5087507;28;20562;-90
2022/11/08 07:17:58;;;;;;;35.60;17.40;;;5.40;99.90;;;;;;5088855;28;20211;-90
2022/11/08 07:20:25;;;;;;;35.23;17.93;;;5.70;99.90;;;;;;5093476;28;20212;-90
2022/11/08 07:22:54;;;;;;;3.10;2.63;;;5.70;99.70;;;;;;5091440;28;20219;-90
2022/11/08 07:25:21;;;;;;;20.73;10.33;;;5.70;98.80;;;;;;5091790;28;20284;-90
2022/11/08 07:27:48;;;;;;;19.37;8.73;;;6.00;99.30;;;;;;5091930;28;20213;-90
2022/11/08 07:30:15;;;;;;;10.60;5.20;;;6.30;98.70;;;;;;5095647;28;20205;-90
2022/11/08 07:32:43;;;;;;;2.53;2.20;;;6.50;97.20;;;;;;5092275;28;20201;-90
2022/11/08 07:35:19;;;;;;;13.40;5.20;;;6.50;96.60;;;;;;5091976;28;20660;-90
2022/11/08 07:37:46;;;;;;;4.20;2.50;;;6.60;97.50;;;;;;5092100;28;20427;-90
2022/11/08 07:40:14;;;;;;;8.97;4.30;;;6.50;96.50;;;;;;5098459;28;20203;-90
2022/11/08 07:42:42;;;;;;;3.50;2.80;;;6.60;97.00;;;;;;5092888;28;20748;-90
2022/11/08 07:45:18;;;;;;;3.92;2.42;;;6.70;97.00;;;;;;5091023;28;20203;-90
2022/11/08 07:47:46;;;;;;;4.85;2.30;;;6.70;97.00;;;;;;5094274;28;20220;-90
2022/11/08 07:50:13;;;;;;;4.22;2.30;;;6.80;96.70;;;;;;5095319;28;20252;-90
2022/11/08 07:52:42;;;;;;;8.35;3.53;;;6.80;96.90;;;;;;5094171;28;20208;-90
2022/11/08 07:55:09;;;;;;;9.52;3.42;;;7.00;96.50;;;;;;5093072;28;20284;-90
2022/11/08 07:57:48;;;;;;;3.33;2.05;;;7.00;96.90;;;;;;5091741;28;20308;-90
2022/11/08 08:00:48;;;;;;;4.53;2.60;;;7.20;96.00;;;;;;5085515;28;20283;-90
2022/11/08 08:03:19;;;;;;;3.60;2.05;;;7.20;96.10;;;;;;5082537;28;20207;-90
2022/11/08 08:05:52;;;;;;;3.88;2.53;;;7.40;94.90;;;;;;5093201;28;20202;-90
2022/11/08 08:08:19;;;;;;;4.10;2.50;;;7.50;95.50;;;;;;5089967;28;20232;-90
2022/11/08 08:11:01;;;;;;;4.00;2.50;;;7.70;94.60;;;;;;5092662;28;20739;-90
2022/11/08 08:13:28;;;;;;;3.78;2.38;;;7.90;93.90;;;;;;5091710;28;20659;-90
2022/11/08 08:16:01;;;;;;;4.57;1.80;;;8.10;92.60;;;;;;5092636;28;20208;-90
2022/11/08 08:18:30;;;;;;;5.35;2.38;;;8.30;90.40;;;;;;5091130;28;20189;-90
2022/11/08 08:20:57;;;;;;;4.40;1.77;;;8.50;93.70;;;;;;5085101;28;20203;-90
2022/11/08 08:23:24;;;;;;;1.98;1.70;;;8.80;90.40;;;;;;5095873;28;20204;-90
2022/11/08 08:25:51;;;;;;;5.05;2.67;;;8.80;86.30;;;;;;5092104;28;20198;-90
2022/11/08 08:28:24;;;;;;;2.38;1.90;;;9.10;85.40;;;;;;5092020;28;20312;-90
2022/11/08 08:30:51;;;;;;;4.63;1.80;;;9.30;83.00;;;;;;5094778;28;20207;-90
2022/11/08 08:33:18;;;;;;;3.28;1.55;;;9.60;78.30;;;;;;5093433;28;20196;-90
2022/11/08 08:36:13;;;;;;;3.63;2.20;;;10.10;73.10;;;;;;5092291;28;20656;-90
2022/11/08 08:38:42;;;;;;;3.08;2.00;;;10.70;63.30;;;;;;5096006;28;20655;-90
2022/11/08 08:44:30;;;;;;;2.85;2.50;;;12.10;52.00;;;;;;5085418;28;20231;-90
2022/11/08 08:46:57;;;;;;;3.50;2.08;;;13.00;43.80;;;;;;5091688;28;20241;-90
2022/11/08 08:49:24;;;;;;;3.72;1.80;;;13.80;44.70;;;;;;5096370;28;20194;-90
2022/11/08 08:51:52;;;;;;;3.22;1.77;;;14.40;31.10;;;;;;5091086;28;20201;-90
2022/11/08 08:54:19;;;;;;;2.35;1.83;;;15.00;29.40;;;;;;5090899;28;20208;-90
2022/11/08 08:56:46;;;;;;;2.20;1.65;;;15.80;28.50;;;;;;5091445;28;20203;-90
2022/11/08 08:59:13;;;;;;;3.22;1.92;;;16.50;28.00;;;;;;5086110;28;20326;-90
2022/11/08 09:01:40;;;;;;;2.40;1.70;;;17.10;24.00;;;;;;5090700;28;20204;-88
2022/11/08 09:04:07;;;;;;;2.97;1.85;;;17.90;21.70;;;;;;5092624;28;20210;-88
2022/11/08 09:06:34;;;;;;;3.35;1.70;;;19.40;19.10;;;;;;5089191;28;20696;-85
2022/11/08 09:09:02;;;;;;;2.88;1.83;;;19.50;16.60;;;;;;5085383;28;20204;-85
2022/11/08 09:11:29;;;;;;;1.90;1.50;;;20.10;17.10;;;;;;5086127;28;20202;-86
2022/11/08 09:13:56;;;;;;;5.35;1.90;;;20.30;15.50;;;;;;5087992;28;20672;-86
2022/11/08 09:16:24;;;;;;;2.78;1.80;;;20.60;17.10;;;;;;5089795;28;20663;-87
2022/11/08 09:18:51;;;;;;;2.88;1.65;;;21.00;15.70;;;;;;5090391;28;20555;-86
2022/11/08 09:21:18;;;;;;;3.28;1.85;;;20.50;16.00;;;;;;5092611;28;20208;-88
2022/11/08 09:23:44;;;;;;;2.28;1.63;;;19.70;18.00;;;;;;5089862;28;20291;-85
2022/11/08 09:26:13;;;;;;;2.03;1.80;;;18.10;18.40;;;;;;5088022;28;20626;-88
2022/11/08 09:28:40;;;;;;;4.45;1.45;;;17.40;20.70;;;;;;5080757;28;20250;-88
2022/11/08 09:31:12;;;;;;;3.20;1.60;;;17.70;22.20;;;;;;5090303;28;20208;-88
2022/11/08 09:33:40;;;;;;;1.63;1.52;;;18.00;20.10;;;;;;5086476;28;20199;-87
2022/11/08 09:36:18;;;;;;;2.10;1.60;;;18.00;21.00;;;;;;5086526;28;20214;-89
2022/11/08 09:38:45;;;;;;;4.22;2.13;;;17.70;21.60;;;;;;5091734;28;20218;-88
2022/11/08 09:41:37;;;;;;;2.40;1.80;;;17.00;22.60;;;;;;5095954;28;20211;-88
2022/11/08 09:44:25;;;;;;;3.50;1.50;;;16.50;24.30;;;;;;5093268;28;20201;-88
2022/11/08 09:46:55;;;;;;;3.35;1.60;;;16.40;24.30;;;;;;5092178;28;20708;-88
2022/11/08 09:49:35;;;;;;;2.78;1.40;;;16.90;23.80;;;;;;5088241;28;20287;-88
2022/11/08 09:52:20;;;;;;;2.95;1.67;;;17.40;20.90;;;;;;5092098;28;20200;-88
2022/11/08 09:54:50;;;;;;;1.85;1.25;;;17.40;21.40;;;;;;5092904;28;20718;-88
2022/11/08 09:57:24;;;;;;;1.75;1.40;;;16.80;21.20;;;;;;5094289;28;20214;-86
2022/11/08 09:59:56;;;;;;;2.92;1.17;;;15.90;22.30;;;;;;5094690;28;20664;-89
2022/11/08 10:02:26;;;;;;;1.63;1.33;;;15.70;23.70;;;;;;5101454;28;20724;-89
2022/11/08 10:04:57;;;;;;;1.45;1.35;;;15.50;25.20;;;;;;5094072;28;20679;-89
2022/11/08 10:07:35;;;;;;;1.98;1.55;;;15.40;28.30;;;;;;5094218;28;20223;-90
2022/11/08 10:10:30;;;;;;;1.58;1.38;;;15.90;26.20;;;;;;5097373;28;20582;-89
2022/11/08 10:13:08;;;;;;;1.92;1.60;;;16.80;23.80;;;;;;5062686;28;20857;-88
2022/11/08 10:15:41;;;;;;;10.15;6.35;;;17.80;18.90;;;;;;5093317;28;20196;-87
2022/11/08 10:18:41;;;;;;;3.03;1.83;;;18.30;19.00;;;;;;5084026;28;20528;-85
2022/11/08 10:21:19;;;;;;;4.95;2.08;;;18.80;18.40;;;;;;5094039;28;20626;-85
2022/11/08 10:23:54;;;;;;;26.25;15.82;;;18.50;19.30;;;;;;5087090;28;20201;-87
2022/11/08 10:26:29;;;;;;;4.32;2.25;;;18.10;19.60;;;;;;5078582;28;20226;-88
2022/11/08 10:29:02;;;;;;;6.25;4.35;;;17.50;21.30;;;;;;5088062;28;20224;-88
2022/11/08 10:31:33;;;;;;;17.75;10.35;;;17.10;21.30;;;;;;5086178;28;20212;-88
2022/11/08 10:34:13;;;;;;;3.53;2.35;;;16.60;21.80;;;;;;5093653;28;20300;-88
2022/11/08 10:36:43;;;;;;;6.22;3.08;;;16.00;24.60;;;;;;5094412;28;20719;-88
2022/11/08 10:39:15;;;;;;;3.17;2.67;;;15.60;25.20;;;;;;5092929;28;20215;-89
2022/11/08 10:42:08;;;;;;;7.18;4.40;;;15.30;25.80;;;;;;5089746;28;20205;-89
2022/11/08 10:44:37;;;;;;;11.77;6.07;;;15.00;26.70;;;;;;5087462;28;20215;-89
2022/11/08 10:47:06;;;;;;;5.90;3.08;;;14.90;28.90;;;;;;5091860;28;20256;-89
2022/11/08 10:49:36;;;;;;;3.90;2.50;;;14.60;27.50;;;;;;5086767;28;20288;-90
2022/11/08 10:52:17;;;;;;;5.18;2.60;;;14.40;27.40;;;;;;5092930;28;20211;-89
2022/11/08 10:54:47;;;;;;;8.05;3.53;;;14.40;27.40;;;;;;5092848;28;20235;-89
2022/11/08 10:57:26;;;;;;;9.05;2.83;;;14.30;27.30;;;;;;5094142;28;20215;-89
2022/11/08 11:00:23;;;;;;;10.20;3.05;;;14.40;27.40;;;;;;5090591;28;20231;-89
2022/11/08 11:02:52;;;;;;;7.30;3.28;;;14.60;28.40;;;;;;5090093;28;20250;-89
2022/11/08 11:05:33;;;;;;;10.38;2.75;;;14.80;27.70;;;;;;5090100;28;20201;-91
2022/11/08 11:08:21;;;;;;;4.40;2.10;;;14.90;27.70;;;;;;5087935;28;20250;-90
2022/11/08 11:11:23;;;;;;;4.80;2.08;;;15.30;28.10;;;;;;5084354;28;20209;-90
2022/11/08 11:14:05;;;;;;;4.57;2.20;;;15.50;28.30;;;;;;5001050;28;20214;-90
2022/11/08 11:16:34;;;;;;;6.43;2.38;;;15.60;27.40;;;;;;5011493;28;20203;-90
2022/11/08 11:19:14;;;;;;;3.42;2.13;;;15.60;28.30;;;;;;5011011;28;20210;-89
2022/11/08 11:22:07;;;;;;;4.43;2.53;;;15.90;25.20;;;;;;5009912;28;20585;-89
2022/11/08 11:24:34;;;;;;;3.47;2.10;;;16.10;25.00;;;;;;5007099;28;20654;-89
2022/11/08 11:27:21;;;;;;;4.60;1.92;;;16.10;24.40;;;;;;5006204;28;20199;-90
2022/11/08 11:29:48;;;;;;;5.38;2.50;;;16.00;24.10;;;;;;5008793;28;20252;-90
2022/11/08 11:32:34;;;;;;;5.82;1.90;;;16.10;23.90;;;;;;5010087;28;20205;-90
2022/11/08 11:35:18;;;;;;;3.88;1.65;;;16.00;24.30;;;;;;5010704;28;20212;-89
2022/11/08 11:37:47;;;;;;;4.35;2.00;;;16.00;24.30;;;;;;5005721;28;20211;-92
2022/11/08 11:41:05;;;;;;;5.38;1.90;;;16.00;24.10;;;;;;5006985;28;20204;-89
2022/11/08 11:43:41;;;;;;;5.80;1.92;;;15.90;25.00;;;;;;5006379;28;20195;-90
2022/11/08 11:46:20;;;;;;;2.88;1.67;;;15.90;24.10;;;;;;5009446;28;20724;-90
2022/11/08 11:49:06;;;;;;;2.78;1.50;;;15.90;24.50;;;;;;5081198;28;20216;-90
2022/11/08 11:51:36;;;;;;;3.47;1.80;;;15.90;24.80;;;;;;5087119;28;20200;-90
2022/11/08 11:54:07;;;;;;;3.90;1.80;;;15.90;25.30;;;;;;5095693;28;20216;-89
2022/11/08 11:56:56;;;;;;;4.25;1.88;;;15.90;25.60;;;;;;5089690;28;20190;-90
2022/11/08 11:59:52;;;;;;;3.78;1.90;;;16.00;26.00;;;;;;5092383;28;20184;-89
2022/11/08 12:02:54;;;;;;;2.25;1.63;;;15.90;28.60;;;;;;5086371;28;20205;-90
2022/11/08 12:05:33;;;;;;;3.60;1.80;;;15.90;28.60;;;;;;5092046;28;20699;-89
2022/11/08 12:08:27;;;;;;;4.25;1.80;;;15.80;28.50;;;;;;5091011;28;20310;-90
2022/11/08 12:11:13;;;;;;;3.42;2.30;;;15.80;28.50;;;;;;5091022;28;20196;-89
2022/11/08 12:13:57;;;;;;;5.05;1.83;;;15.80;28.60;;;;;;5092160;28;20188;-90
2022/11/08 12:16:43;;;;;;;5.60;1.73;;;15.70;28.50;;;;;;5087970;28;20201;-90
2022/11/08 12:19:46;;;;;;;2.80;2.05;;;15.40;28.20;;;;;;5091541;28;20208;-90
2022/11/08 12:22:38;;;;;;;3.00;2.00;;;15.40;28.20;;;;;;5087235;28;20287;-90
2022/11/08 12:25:10;;;;;;;2.80;1.80;;;15.40;28.20;;;;;;5089541;28;20205;-89
2022/11/08 12:27:50;;;;;;;6.40;2.20;;;15.50;28.30;;;;;;5091893;28;20262;-91
2022/11/08 12:30:34;;;;;;;3.72;1.73;;;15.50;28.30;;;;;;5080796;28;20204;-90
2022/11/08 12:33:34;;;;;;;2.88;2.08;;;15.50;28.30;;;;;;5093112;28;20294;-90
2022/11/08 12:36:28;;;;;;;8.07;2.47;;;15.40;28.20;;;;;;5086421;28;20645;-90
2022/11/08 12:39:23;;;;;;;4.88;2.10;;;15.50;28.30;;;;;;5091885;28;20224;-90
2022/11/08 12:42:39;;;;;;;3.78;1.63;;;15.50;28.30;;;;;;5088149;28;20196;-90
2022/11/08 12:45:59;;;;;;;2.97;1.88;;;15.60;28.30;;;;;;5017973;28;20778;-90
2022/11/08 12:49:08;;;;;;;3.38;1.75;;;15.60;28.40;;;;;;5029786;28;20217;-90
2022/11/08 12:51:48;;;;;;;3.40;2.17;;;15.50;28.30;;;;;;5008318;28;20668;-90
2022/11/08 12:54:25;;;;;;;2.50;1.95;;;15.40;28.20;;;;;;5025836;28;20614;-90
2022/11/08 12:56:58;;;;;;;4.03;2.38;;;15.30;28.10;;;;;;5028439;28;20201;-90
2022/11/08 12:59:41;;;;;;;4.50;2.00;;;15.30;28.70;;;;;;5023942;28;20194;-89
2022/11/08 13:02:18;;;;;;;2.47;1.88;;;15.40;30.30;;;;;;5023281;28;20333;-89
2022/11/08 13:05:29;;;;;;;5.32;2.30;;;15.50;28.30;;;;;;5033371;28;20190;-90
2022/11/08 13:08:19;;;;;;;4.20;1.98;;;15.60;28.30;;;;;;5031378;28;20225;-90
2022/11/08 13:10:57;;;;;;;3.63;1.90;;;15.70;28.40;;;;;;5023103;28;20206;-89
2022/11/08 13:13:33;;;;;;;4.25;2.30;;;15.90;28.60;;;;;;5028620;28;20190;-90
2022/11/08 13:16:20;;;;;;;5.03;2.15;;;16.00;27.30;;;;;;5028809;28;20597;-89
2022/11/08 13:18:49;;;;;;;4.13;2.47;;;16.10;26.40;;;;;;5024521;28;20206;-90
2022/11/08 13:21:38;;;;;;;5.15;2.60;;;16.20;24.50;;;;;;5045787;28;20196;-90
2022/11/08 13:24:35;;;;;;;4.78;2.35;;;16.20;24.90;;;;;;5090871;28;20204;-89
2022/11/08 13:27:34;;;;;;;4.45;2.13;;;16.20;25.90;;;;;;5086114;28;20238;-91
2022/11/08 13:30:31;;;;;;;3.20;2.35;;;16.20;26.90;;;;;;5089624;28;20215;-90
2022/11/08 13:33:08;;;;;;;6.10;2.47;;;16.20;28.90;;;;;;5094004;28;20202;-90
2022/11/08 13:35:44;;;;;;;5.03;2.50;;;16.10;28.80;;;;;;5091346;28;20192;-90
2022/11/08 13:38:28;;;;;;;3.72;2.28;;;16.10;28.80;;;;;;5091025;28;20349;-89
2022/11/08 13:41:17;;;;;;;4.93;2.40;;;15.90;29.80;;;;;;5086841;28;20284;-90
2022/11/08 13:43:50;;;;;;;7.43;2.30;;;15.90;28.60;;;;;;5086157;28;20652;-88